Samary, Russia
Current Conditions -  °F | °C
As of 5:30 PM on Saturday 25 Oct 2014 (Local Time) from USPP Reporting Station
Scattered Clouds Scattered Clouds  
Wind Chill:   Ceiling: Unl
Heat Index: 16°   Visibility: 6mi
Dew Point:   Wind: 7mph
Humidity: 73%   Direction: 340°NNW
Pressure: 30.18"   Gusts: NA
Location:  57.35°N, 58.22°E
Report Text: USPP 251230Z 34003MPS 9999 SCT029 M09/M13 Q1022 03450245 NOSIGRMK QFE756/1008
Loading
Personal Weather Stations






























Interactive Weather Map
Tropical Storm Tracking
New forecast layout! Learn more

10-Day Weather Forecast

Advertisements
Track Severe Weather on mobile